createdAt,value
2017-11-04T00:00:18.011Z,80.83
2017-11-04T00:01:18.430Z,80.64
2017-11-04T00:02:18.860Z,80.45
2017-11-04T00:03:19.277Z,80.74
2017-11-04T00:04:19.710Z,80.64
2017-11-04T00:05:20.124Z,80.55
2017-11-04T00:06:20.552Z,80.64
2017-11-04T00:07:20.973Z,80.83
2017-11-04T00:08:21.405Z,80.83
2017-11-04T00:09:21.820Z,80.64
2017-11-04T00:10:22.250Z,81.12
2017-11-04T00:11:22.672Z,80.98
2017-11-04T00:12:23.091Z,80.83
2017-11-04T00:13:23.523Z,80.74
2017-11-04T00:14:23.939Z,80.64
2017-11-04T00:15:24.366Z,80.88
2017-11-04T00:16:24.790Z,80.74
2017-11-04T00:17:25.221Z,80.64
2017-11-04T00:18:25.641Z,80.55
2017-11-04T00:19:26.063Z,80.98
2017-11-04T00:20:26.486Z,80.35
2017-11-04T00:21:26.916Z,80.13
2017-11-04T00:22:27.337Z,80.60
2017-11-04T00:23:27.758Z,80.07
2017-11-04T00:24:28.212Z,79.97
2017-11-04T00:25:28.609Z,80.03
2017-11-04T00:26:29.028Z,79.94
2017-11-04T00:27:29.455Z,80.16
2017-11-04T00:28:29.882Z,80.13
2017-11-04T00:29:30.301Z,79.55
2017-11-04T00:30:30.730Z,79.50
2017-11-04T00:31:31.149Z,79.60
2017-11-04T00:32:31.569Z,79.12
2017-11-04T00:33:31.999Z,79.27
2017-11-04T00:34:32.422Z,79.31
2017-11-04T00:35:32.846Z,79.46
2017-11-04T00:36:33.270Z,79.79
2017-11-04T00:37:33.693Z,79.65
2017-11-04T00:38:34.118Z,79.46
2017-11-04T00:39:34.542Z,79.55
2017-11-04T00:40:34.965Z,79.36
2017-11-04T00:41:35.387Z,79.36
2017-11-04T00:42:35.842Z,79.46
2017-11-04T00:43:36.236Z,79.65
2017-11-04T00:44:36.661Z,79.27
2017-11-04T00:45:37.079Z,79.36
2017-11-04T00:46:37.505Z,79.74
2017-11-04T00:47:37.933Z,79.27
2017-11-04T00:48:38.355Z,79.55
2017-11-04T00:49:38.775Z,79.65
2017-11-04T00:50:39.202Z,79.65
2017-11-04T00:51:39.627Z,79.55
2017-11-04T00:52:40.054Z,79.65
2017-11-04T00:53:40.472Z,79.65
2017-11-04T00:54:40.895Z,79.94
2017-11-04T00:55:41.320Z,79.55
2017-11-04T00:56:41.748Z,79.46
2017-11-04T00:57:42.174Z,79.36
2017-11-04T00:58:42.587Z,79.36
2017-11-04T00:59:43.014Z,79.36
2017-11-04T01:00:43.455Z,79.55
2017-11-04T01:01:43.872Z,79.55
2017-11-04T01:02:44.289Z,79.55
2017-11-04T01:03:44.714Z,79.46
2017-11-04T01:04:45.131Z,79.36
2017-11-04T01:05:45.560Z,79.94
2017-11-04T01:06:45.980Z,79.36
2017-11-04T01:07:46.409Z,79.74
2017-11-04T01:08:46.829Z,79.65
2017-11-04T01:09:47.252Z,79.27
2017-11-04T01:10:47.683Z,79.17
2017-11-04T01:11:48.102Z,79.46
2017-11-04T01:12:48.520Z,79.65
2017-11-04T01:13:48.945Z,79.46
2017-11-04T01:14:49.369Z,79.55
2017-11-04T01:15:49.792Z,79.27
2017-11-04T01:16:50.217Z,79.65
2017-11-04T01:17:50.638Z,79.46
2017-11-04T01:18:51.063Z,79.36
2017-11-04T01:19:51.488Z,79.27
2017-11-04T01:20:51.911Z,79.08
2017-11-04T01:21:52.337Z,79.36
2017-11-04T01:22:52.756Z,79.74
2017-11-04T01:23:53.193Z,79.55
2017-11-04T01:24:53.605Z,79.46
2017-11-04T01:25:54.025Z,79.55
2017-11-04T01:26:54.451Z,79.55
2017-11-04T01:27:54.879Z,79.55
2017-11-04T01:28:55.299Z,79.27
2017-11-04T01:29:55.721Z,79.27
2017-11-04T01:30:56.147Z,79.36
2017-11-04T01:31:56.573Z,79.36
2017-11-04T01:32:56.995Z,79.55
2017-11-04T01:33:57.418Z,79.55
2017-11-04T01:34:58.413Z,79.46
2017-11-04T01:35:58.255Z,79.65
2017-11-04T01:36:58.688Z,79.65
2017-11-04T01:37:59.113Z,79.65
2017-11-04T01:38:59.536Z,79.27
2017-11-04T01:39:59.964Z,79.17
2017-11-04T01:41:00.377Z,79.65
2017-11-04T01:42:00.803Z,79.55
2017-11-04T01:43:01.227Z,79.46
2017-11-04T01:44:01.653Z,79.27
2017-11-04T01:45:02.079Z,79.36
2017-11-04T01:46:02.503Z,79.84
2017-11-04T01:47:02.924Z,79.94
2017-11-04T01:48:03.342Z,79.74
2017-11-04T01:49:03.771Z,79.94
2017-11-04T01:50:04.198Z,79.55
2017-11-04T01:51:04.630Z,80.03
2017-11-04T01:52:05.060Z,79.84
2017-11-04T01:53:05.466Z,79.36
2017-11-04T01:54:08.478Z,79.55
2017-11-04T01:55:06.311Z,79.36
2017-11-04T01:56:06.733Z,79.90
2017-11-04T01:57:07.154Z,79.55
2017-11-04T01:58:07.576Z,79.46
2017-11-04T01:59:08.001Z,79.55
2017-11-04T02:00:08.423Z,79.55
2017-11-04T02:01:08.854Z,79.94
2017-11-04T02:02:09.273Z,79.65
2017-11-04T02:03:09.693Z,79.90
2017-11-04T02:04:10.120Z,79.46
2017-11-04T02:05:10.542Z,80.03
2017-11-04T02:06:10.972Z,79.90
2017-11-04T02:07:11.386Z,80.32
2017-11-04T02:08:11.818Z,80.03
2017-11-04T02:09:12.236Z,80.13
2017-11-04T02:10:12.659Z,80.13
2017-11-04T02:11:13.081Z,80.08
2017-11-04T02:12:13.503Z,79.52
2017-11-04T02:13:13.935Z,79.90
2017-11-04T02:14:14.351Z,79.42
2017-11-04T02:15:14.777Z,79.61
2017-11-04T02:16:15.200Z,79.33
2017-11-04T02:17:15.632Z,79.23
2017-11-04T02:18:16.048Z,79.04
2017-11-04T02:19:16.466Z,78.95
2017-11-04T02:20:16.890Z,78.85
2017-11-04T02:21:17.312Z,78.56
2017-11-04T02:22:17.733Z,78.85
2017-11-04T02:23:18.177Z,78.85
2017-11-04T02:24:18.591Z,78.56
2017-11-04T02:25:19.008Z,78.38
2017-11-04T02:26:19.427Z,78.66
2017-11-04T02:27:19.849Z,78.75
2017-11-04T02:28:20.288Z,78.75
2017-11-04T02:29:20.701Z,78.47
2017-11-04T02:30:21.126Z,79.33
2017-11-04T02:31:21.542Z,79.04
2017-11-04T02:32:21.968Z,78.95
2017-11-04T02:33:22.393Z,78.95
2017-11-04T02:34:22.812Z,79.04
2017-11-04T02:35:23.234Z,79.52
2017-11-04T02:36:23.657Z,79.61
2017-11-04T02:37:24.080Z,79.61
2017-11-04T02:38:24.505Z,79.61
2017-11-04T02:39:24.930Z,79.80
2017-11-04T02:40:25.353Z,79.61
2017-11-04T02:41:25.800Z,79.04
2017-11-04T02:42:26.197Z,79.14
2017-11-04T02:43:26.622Z,79.23
2017-11-04T02:44:27.045Z,79.23
2017-11-04T02:45:27.468Z,79.80
2017-11-04T02:46:27.890Z,79.52
2017-11-04T02:47:28.309Z,79.33
2017-11-04T02:48:28.732Z,79.52
2017-11-04T02:49:29.166Z,79.42
2017-11-04T02:50:29.583Z,79.52
2017-11-04T02:51:30.003Z,80.08
2017-11-04T02:52:30.428Z,79.33
2017-11-04T02:53:30.860Z,79.33
2017-11-04T02:54:31.274Z,79.90
2017-11-04T02:55:31.701Z,79.71
2017-11-04T02:56:32.122Z,79.80
2017-11-04T02:57:32.545Z,79.71
2017-11-04T02:58:32.974Z,79.71
2017-11-04T02:59:33.395Z,79.33
2017-11-04T03:00:33.816Z,79.42
2017-11-04T03:01:34.231Z,79.52
2017-11-04T03:02:34.660Z,79.23
2017-11-04T03:03:35.080Z,79.52
2017-11-04T03:04:35.503Z,79.33
2017-11-04T03:05:35.925Z,79.99
2017-11-04T03:06:36.349Z,79.90
2017-11-04T03:07:36.767Z,79.71
2017-11-04T03:08:37.193Z,79.80
2017-11-04T03:09:37.621Z,80.27
2017-11-04T03:10:38.045Z,79.99
2017-11-04T03:11:38.470Z,80.46
2017-11-04T03:12:38.888Z,79.99
2017-11-04T03:13:39.318Z,80.37
2017-11-04T03:14:39.739Z,80.18
2017-11-04T03:15:40.158Z,80.08
2017-11-04T03:16:40.585Z,79.90
2017-11-04T03:17:41.002Z,80.37
2017-11-04T03:18:41.424Z,79.80
2017-11-04T03:19:41.855Z,80.56
2017-11-04T03:20:42.272Z,80.18
2017-11-04T03:21:42.701Z,80.08
2017-11-04T03:22:43.118Z,79.99
2017-11-04T03:23:43.537Z,80.27
2017-11-04T03:24:43.964Z,80.27
2017-11-04T03:25:44.387Z,80.27
2017-11-04T03:26:44.807Z,79.99
2017-11-04T03:27:45.236Z,80.65
2017-11-04T03:28:45.657Z,80.84
2017-11-04T03:29:46.081Z,80.75
2017-11-04T03:30:46.505Z,80.75
2017-11-04T03:31:46.922Z,80.75
2017-11-04T03:32:47.352Z,81.04
2017-11-04T03:33:47.771Z,80.94
2017-11-04T03:34:48.194Z,81.51
2017-11-04T03:35:48.617Z,81.41
2017-11-04T03:36:49.041Z,80.65
2017-11-04T03:37:49.459Z,81.51
2017-11-04T03:38:49.888Z,81.60
2017-11-04T03:39:50.311Z,81.60
2017-11-04T03:40:50.728Z,81.32
2017-11-04T03:41:51.153Z,81.41
2017-11-04T03:42:51.573Z,81.51
2017-11-04T03:43:51.997Z,81.60
2017-11-04T03:44:52.425Z,80.65
2017-11-04T03:45:52.843Z,81.51
2017-11-04T03:46:53.267Z,81.70
2017-11-04T03:47:53.691Z,81.51
2017-11-04T03:48:54.111Z,81.41
2017-11-04T03:49:54.544Z,81.32
2017-11-04T03:50:54.958Z,81.70
2017-11-04T03:51:55.383Z,81.32
2017-11-04T03:52:55.808Z,81.41
2017-11-04T03:53:56.225Z,81.13
2017-11-04T03:54:56.649Z,81.41
2017-11-04T03:55:57.071Z,81.51
2017-11-04T03:56:57.492Z,81.41
2017-11-04T03:57:57.915Z,81.60
2017-11-04T03:58:58.340Z,81.41
2017-11-04T03:59:58.760Z,81.32
2017-11-04T04:00:59.188Z,81.60
2017-11-04T04:01:59.605Z,81.70
2017-11-04T04:03:00.037Z,81.70
2017-11-04T04:04:00.450Z,81.51
2017-11-04T04:05:00.880Z,81.60
2017-11-04T04:06:01.941Z,79.52
2017-11-04T04:07:01.710Z,78.75
2017-11-04T04:08:02.145Z,78.89
2017-11-04T04:09:02.575Z,80.88
2017-11-04T04:10:02.999Z,80.60
2017-11-04T04:11:03.420Z,82.88
2017-11-04T04:12:03.837Z,84.68
2017-11-04T04:13:04.277Z,85.82
2017-11-04T04:14:04.687Z,87.53
2017-11-04T04:15:05.103Z,87.24
2017-11-04T04:16:05.538Z,87.82
2017-11-04T04:17:05.954Z,88.01
2017-11-04T04:18:06.379Z,88.76
2017-11-04T04:19:06.797Z,88.95
2017-11-04T04:20:07.220Z,88.95
2017-11-04T04:21:07.643Z,89.24
2017-11-04T04:22:08.071Z,88.67
2017-11-04T04:23:08.487Z,89.24
2017-11-04T04:24:08.921Z,89.14
2017-11-04T04:25:09.338Z,89.53
2017-11-04T04:26:09.767Z,89.14
2017-11-04T04:27:10.182Z,88.86
2017-11-04T04:28:10.606Z,89.24
2017-11-04T04:29:11.029Z,89.14
2017-11-04T04:30:11.453Z,89.05
2017-11-04T04:31:11.879Z,88.57
2017-11-04T04:32:12.298Z,89.14
2017-11-04T04:33:12.733Z,89.14
2017-11-04T04:34:13.145Z,89.05
2017-11-04T04:35:13.569Z,89.43
2017-11-04T04:36:13.995Z,90.00
2017-11-04T04:37:14.419Z,90.28
2017-11-04T04:38:14.837Z,90.19
2017-11-04T04:39:15.267Z,90.09
2017-11-04T04:40:15.686Z,90.57
2017-11-04T04:41:16.110Z,90.57
2017-11-04T04:42:16.537Z,90.57
2017-11-04T04:43:16.954Z,89.62
2017-11-04T04:44:17.384Z,90.00
2017-11-04T04:45:17.807Z,89.81
2017-11-04T04:46:18.234Z,89.81
2017-11-04T04:47:18.651Z,90.00
2017-11-04T04:48:19.071Z,90.28
2017-11-04T04:49:19.498Z,90.47
2017-11-04T04:50:19.921Z,90.95
2017-11-04T04:51:20.350Z,91.14
2017-11-04T04:52:20.766Z,90.95
2017-11-04T04:53:21.189Z,91.71
2017-11-04T04:54:21.615Z,91.52
2017-11-04T04:55:22.041Z,91.61
2017-11-04T04:56:22.458Z,91.61
2017-11-04T04:57:22.882Z,91.71
2017-11-04T04:58:23.308Z,91.71
2017-11-04T04:59:23.726Z,91.24
2017-11-04T05:00:24.155Z,90.95
2017-11-04T05:01:24.580Z,90.66
2017-11-04T05:02:24.999Z,90.28
2017-11-04T05:03:25.422Z,90.76
2017-11-04T05:04:25.849Z,89.72
2017-11-04T05:05:26.268Z,89.29
2017-11-04T05:06:26.694Z,89.53
2017-11-04T05:07:27.111Z,89.20
2017-11-04T05:08:27.553Z,89.00
2017-11-04T05:09:27.968Z,88.24
2017-11-04T05:10:28.386Z,88.15
2017-11-04T05:11:28.806Z,88.53
2017-11-04T05:12:29.230Z,87.77
2017-11-04T05:13:29.656Z,87.87
2017-11-04T05:14:30.077Z,87.87
2017-11-04T05:15:30.505Z,87.49
2017-11-04T05:16:30.929Z,87.11
2017-11-04T05:17:31.348Z,87.30
2017-11-04T05:18:31.769Z,87.01
2017-11-04T05:19:32.196Z,86.91
2017-11-04T05:20:32.619Z,87.11
2017-11-04T05:21:33.037Z,86.82
2017-11-04T05:22:33.459Z,87.39
2017-11-04T05:23:33.888Z,87.20
2017-11-04T05:24:34.305Z,86.44
2017-11-04T05:25:34.734Z,86.63
2017-11-04T05:26:35.162Z,86.63
2017-11-04T05:27:35.600Z,86.54
2017-11-04T05:28:35.997Z,86.16
2017-11-04T05:29:36.424Z,86.72
2017-11-04T05:30:36.846Z,86.54
2017-11-04T05:31:37.275Z,86.25
2017-11-04T05:32:37.694Z,86.07
2017-11-04T05:33:38.120Z,85.97
2017-11-04T05:34:38.540Z,86.16
2017-11-04T05:35:38.958Z,86.07
2017-11-04T05:36:39.388Z,85.49
2017-11-04T05:37:39.807Z,85.49
2017-11-04T05:38:40.231Z,85.78
2017-11-04T05:39:40.652Z,85.40
2017-11-04T05:40:41.075Z,85.49
2017-11-04T05:41:41.498Z,85.30
2017-11-04T05:42:41.923Z,85.30
2017-11-04T05:43:42.352Z,85.30
2017-11-04T05:44:42.770Z,84.92
2017-11-04T05:45:43.195Z,84.83
2017-11-04T05:46:43.618Z,84.64
2017-11-04T05:47:44.036Z,84.45
2017-11-04T05:48:44.468Z,84.45
2017-11-04T05:49:44.883Z,84.45
2017-11-04T05:50:45.308Z,84.55
2017-11-04T05:51:45.730Z,84.45
2017-11-04T05:52:46.152Z,84.36
2017-11-04T05:53:46.576Z,84.45
2017-11-04T05:54:47.004Z,84.17
2017-11-04T05:55:47.424Z,84.74
2017-11-04T05:56:47.840Z,84.17
2017-11-04T05:57:48.269Z,84.26
2017-11-04T05:58:48.687Z,84.26
2017-11-04T05:59:49.110Z,83.78
2017-11-04T06:00:49.532Z,84.36
2017-11-04T06:01:49.955Z,84.36
2017-11-04T06:02:50.382Z,84.45
2017-11-04T06:03:50.801Z,84.07
2017-11-04T06:04:51.224Z,84.83
2017-11-04T06:05:51.647Z,84.45
2017-11-04T06:06:52.073Z,84.74
2017-11-04T06:07:52.496Z,84.64
2017-11-04T06:08:52.914Z,84.45
2017-11-04T06:09:53.339Z,84.36
2017-11-04T06:10:53.761Z,85.02
2017-11-04T06:11:54.184Z,84.83
2017-11-04T06:12:54.606Z,84.92
2017-11-04T06:13:55.029Z,85.30
2017-11-04T06:14:55.449Z,85.30
2017-11-04T06:15:55.874Z,85.40
2017-11-04T06:16:56.297Z,85.40
2017-11-04T06:17:56.717Z,85.49
2017-11-04T06:18:57.144Z,85.87
2017-11-04T06:19:57.563Z,86.07
2017-11-04T06:20:57.988Z,85.78
2017-11-04T06:21:58.409Z,85.97
2017-11-04T06:22:58.838Z,85.87
2017-11-04T06:23:59.257Z,85.78
2017-11-04T06:24:59.677Z,85.68
2017-11-04T06:26:00.105Z,86.07
2017-11-04T06:27:00.529Z,85.97
2017-11-04T06:28:00.952Z,86.63
2017-11-04T06:29:01.367Z,86.72
2017-11-04T06:30:01.793Z,86.82
2017-11-04T06:31:02.214Z,86.91
2017-11-04T06:32:02.641Z,87.30
2017-11-04T06:33:03.059Z,87.30
2017-11-04T06:34:03.485Z,87.96
2017-11-04T06:35:03.908Z,88.06
2017-11-04T06:36:04.328Z,87.96
2017-11-04T06:37:04.753Z,87.87
2017-11-04T06:38:05.177Z,87.77
2017-11-04T06:39:05.600Z,87.96
2017-11-04T06:40:06.020Z,87.96
2017-11-04T06:41:06.442Z,87.96
2017-11-04T06:42:06.867Z,87.87
2017-11-04T06:43:07.296Z,87.96
2017-11-04T06:44:07.716Z,88.72
2017-11-04T06:45:08.133Z,88.43
2017-11-04T06:46:08.559Z,87.96
2017-11-04T06:47:08.981Z,87.87
2017-11-04T06:48:09.410Z,87.96
2017-11-04T06:49:09.830Z,87.77
2017-11-04T06:50:10.248Z,87.77
2017-11-04T06:51:10.674Z,87.87
2017-11-04T06:52:11.094Z,87.68
2017-11-04T06:53:11.515Z,87.96
2017-11-04T06:54:11.945Z,87.96
2017-11-04T06:55:12.364Z,87.77
2017-11-04T06:56:12.793Z,87.87
2017-11-04T06:57:13.211Z,88.06
2017-11-04T06:58:13.644Z,88.43
2017-11-04T06:59:14.061Z,88.24
2017-11-04T07:00:14.478Z,88.24
2017-11-04T07:01:14.901Z,88.43
2017-11-04T07:02:15.324Z,88.15
2017-11-04T07:03:15.748Z,88.53
2017-11-04T07:04:16.181Z,88.62
2017-11-04T07:05:16.599Z,88.72
2017-11-04T07:06:17.016Z,88.72
2017-11-04T07:07:17.443Z,88.57
2017-11-04T07:08:17.877Z,88.20
2017-11-04T07:09:18.294Z,88.86
2017-11-04T07:10:18.720Z,88.95
2017-11-04T07:11:19.137Z,89.24
2017-11-04T07:12:19.556Z,89.43
2017-11-04T07:13:19.984Z,89.62
2017-11-04T07:14:20.406Z,89.90
2017-11-04T07:15:20.830Z,90.28
2017-11-04T07:16:21.248Z,90.38
2017-11-04T07:17:21.693Z,89.81
2017-11-04T07:18:22.104Z,90.09
2017-11-04T07:19:22.538Z,90.85
2017-11-04T07:20:22.947Z,90.76
2017-11-04T07:21:23.371Z,91.33
2017-11-04T07:22:23.807Z,90.66
2017-11-04T07:23:24.225Z,90.95
2017-11-04T07:24:24.640Z,90.57
2017-11-04T07:25:25.061Z,91.14
2017-11-04T07:26:25.488Z,91.14
2017-11-04T07:27:25.918Z,90.95
2017-11-04T07:28:26.337Z,91.52
2017-11-04T07:29:26.765Z,91.24
2017-11-04T07:30:27.189Z,91.71
2017-11-04T07:31:27.605Z,91.61
2017-11-04T07:32:28.031Z,91.80
2017-11-04T07:33:28.453Z,91.52
2017-11-04T07:34:28.880Z,91.24
2017-11-04T07:35:29.305Z,91.24
2017-11-04T07:36:29.725Z,91.04
2017-11-04T07:37:30.150Z,91.24
2017-11-04T07:38:30.568Z,90.95
2017-11-04T07:39:30.999Z,90.85
2017-11-04T07:40:31.416Z,90.85
2017-11-04T07:41:31.846Z,90.85
2017-11-04T07:42:32.265Z,90.95
2017-11-04T07:43:32.688Z,90.95
2017-11-04T07:44:33.110Z,91.04
2017-11-04T07:45:33.532Z,90.66
2017-11-04T07:46:33.961Z,91.42
2017-11-04T07:47:34.381Z,91.71
2017-11-04T07:48:34.805Z,91.61
2017-11-04T07:49:35.228Z,91.52
2017-11-04T07:50:35.656Z,91.52
2017-11-04T07:51:36.076Z,91.61
2017-11-04T07:52:36.497Z,91.71
2017-11-04T07:53:36.985Z,91.80
2017-11-04T07:54:37.348Z,91.80
2017-11-04T07:55:37.773Z,91.89
2017-11-04T07:56:38.190Z,92.94
2017-11-04T07:57:38.616Z,92.94
2017-11-04T07:58:39.043Z,93.18
2017-11-04T07:59:39.464Z,92.90
2017-11-04T08:00:39.908Z,92.66
2017-11-04T08:01:40.315Z,92.80
2017-11-04T08:02:40.735Z,93.65
2017-11-04T08:03:41.159Z,94.13
2017-11-04T08:04:41.583Z,94.03
2017-11-04T08:05:42.012Z,94.03
2017-11-04T08:06:42.436Z,94.79
2017-11-04T08:07:42.859Z,94.79
2017-11-04T08:08:43.278Z,95.65
2017-11-04T08:09:43.710Z,95.46
2017-11-04T08:10:44.129Z,95.75
2017-11-04T08:11:44.558Z,95.94
2017-11-04T08:12:44.976Z,96.22
2017-11-04T08:13:45.401Z,96.03
2017-11-04T08:14:45.828Z,96.22
2017-11-04T08:15:46.250Z,96.08
2017-11-04T08:16:46.673Z,96.31
2017-11-04T08:17:47.098Z,96.50
2017-11-04T08:18:47.530Z,96.60
2017-11-04T08:19:47.947Z,96.98
2017-11-04T08:20:48.375Z,97.03
2017-11-04T08:21:48.801Z,96.88
2017-11-04T08:22:49.223Z,96.69
2017-11-04T08:23:49.646Z,96.84
2017-11-04T08:24:50.073Z,97.31
2017-11-04T08:25:50.491Z,97.07
2017-11-04T08:26:50.918Z,97.31
2017-11-04T08:27:51.346Z,96.93
2017-11-04T08:28:51.771Z,96.93
2017-11-04T08:29:52.195Z,97.88
2017-11-04T08:30:52.621Z,97.69
2017-11-04T08:31:53.042Z,97.97
2017-11-04T08:32:53.475Z,98.17
2017-11-04T08:33:53.899Z,97.78
2017-11-04T08:34:54.357Z,97.88
2017-11-04T08:35:54.763Z,97.88
2017-11-04T08:36:55.202Z,98.88
2017-11-04T08:37:55.607Z,98.79
2017-11-04T08:38:56.066Z,98.88
2017-11-04T08:39:56.470Z,99.16
2017-11-04T08:40:56.894Z,98.60
2017-11-04T08:41:57.354Z,99.16
2017-11-04T08:42:57.740Z,99.55
2017-11-04T08:43:58.169Z,99.55
2017-11-04T08:44:58.628Z,99.93
2017-11-04T08:45:59.026Z,99.64
2017-11-04T08:46:59.446Z,99.74
2017-11-04T08:47:59.854Z,99.99
2017-11-04T08:49:00.283Z,99.99
2017-11-04T08:50:00.773Z,99.99
2017-11-04T08:51:01.162Z,99.99
2017-11-04T08:52:01.603Z,99.99
2017-11-04T08:53:02.023Z,99.99
2017-11-04T08:54:02.485Z,99.99
2017-11-04T08:55:02.868Z,99.99
2017-11-04T08:56:03.294Z,99.99
2017-11-04T08:57:03.721Z,99.99
2017-11-04T08:58:04.126Z,99.99
2017-11-04T08:59:04.563Z,99.99
2017-11-04T09:00:04.981Z,99.99
2017-11-04T09:01:05.426Z,99.99
2017-11-04T09:02:05.832Z,99.99
2017-11-04T09:03:06.272Z,99.99
2017-11-04T09:04:06.709Z,99.99
2017-11-04T09:05:07.178Z,99.99
2017-11-04T09:06:07.554Z,99.80
2017-11-04T09:07:07.994Z,99.51
2017-11-04T09:08:08.396Z,99.70
2017-11-04T09:09:08.829Z,99.99
2017-11-04T09:10:09.258Z,99.99
2017-11-04T09:11:09.691Z,99.99
2017-11-04T09:12:10.134Z,99.99
2017-11-04T09:13:10.554Z,99.99
2017-11-04T09:14:11.007Z,99.37
2017-11-04T09:15:11.430Z,99.99
2017-11-04T09:16:11.835Z,99.99
2017-11-04T09:17:12.302Z,99.99
2017-11-04T09:18:12.715Z,99.99
2017-11-04T09:19:13.123Z,99.99
2017-11-04T09:20:13.672Z,99.99
2017-11-04T09:21:13.996Z,99.99
2017-11-04T09:22:14.431Z,99.99
2017-11-04T09:23:14.904Z,99.99
2017-11-04T09:24:15.311Z,99.99
2017-11-04T09:25:15.719Z,99.99
2017-11-04T09:26:16.161Z,99.99
2017-11-04T09:27:16.593Z,99.99
2017-11-04T09:28:17.046Z,99.99
2017-11-04T09:29:17.452Z,99.99
2017-11-04T09:30:17.905Z,99.99
2017-11-04T09:31:18.296Z,99.99
2017-11-04T09:32:18.727Z,99.99
2017-11-04T09:33:19.173Z,99.99
2017-11-04T09:34:19.591Z,99.99
2017-11-04T09:35:20.043Z,99.99
2017-11-04T09:36:20.461Z,99.99
2017-11-04T09:37:20.874Z,99.99
2017-11-04T09:38:22.017Z,99.99
2017-11-04T09:39:21.727Z,99.99
2017-11-04T09:40:22.166Z,99.99
2017-11-04T09:41:22.604Z,99.99
2017-11-04T09:42:23.025Z,99.99
2017-11-04T09:43:23.456Z,99.99
2017-11-04T09:44:23.889Z,99.99
2017-11-04T09:45:24.318Z,99.99
2017-11-04T09:46:24.745Z,99.99
2017-11-04T09:47:25.179Z,99.99
2017-11-04T09:48:25.609Z,99.95
2017-11-04T09:49:26.041Z,99.99
2017-11-04T09:50:26.469Z,99.99
2017-11-04T09:51:26.913Z,99.99
2017-11-04T09:52:27.339Z,99.99
2017-11-04T09:53:27.764Z,99.99
2017-11-04T09:54:28.206Z,99.99
2017-11-04T09:55:28.634Z,99.99
2017-11-04T09:56:29.062Z,99.23
2017-11-04T09:57:29.491Z,99.42
2017-11-04T09:58:29.926Z,99.23
2017-11-04T09:59:30.358Z,99.32
2017-11-04T10:00:30.803Z,98.42
2017-11-04T10:01:31.225Z,98.47
2017-11-04T10:02:31.664Z,98.42
2017-11-04T10:03:32.089Z,98.03
2017-11-04T10:04:32.538Z,96.89
2017-11-04T10:05:32.955Z,97.85
2017-11-04T10:06:33.392Z,97.56
2017-11-04T10:07:33.822Z,97.47
2017-11-04T10:08:34.254Z,98.66
2017-11-04T10:09:34.686Z,98.47
2017-11-04T10:10:35.122Z,99.52
2017-11-04T10:11:35.551Z,99.99
2017-11-04T10:12:35.985Z,99.99
2017-11-04T10:13:36.422Z,99.99
2017-11-04T10:14:36.849Z,99.99
2017-11-04T10:15:37.280Z,99.99
2017-11-04T10:16:37.710Z,99.99
2017-11-04T10:17:38.142Z,99.99
2017-11-04T10:18:38.576Z,99.99
2017-11-04T10:19:39.009Z,99.99
2017-11-04T10:20:39.441Z,99.99
2017-11-04T10:21:39.868Z,99.99
2017-11-04T10:22:40.300Z,99.99
2017-11-04T10:23:40.734Z,99.99
2017-11-04T10:24:41.170Z,99.99
2017-11-04T10:25:41.592Z,99.99
2017-11-04T10:26:42.057Z,99.99
2017-11-04T10:27:42.475Z,99.99
2017-11-04T10:28:42.891Z,99.99
2017-11-04T10:29:43.325Z,99.99
2017-11-04T10:30:43.759Z,99.99
2017-11-04T10:31:44.188Z,99.99
2017-11-04T10:32:44.622Z,99.71
2017-11-04T10:33:45.056Z,99.13
2017-11-04T10:34:45.485Z,99.42
2017-11-04T10:35:45.919Z,99.32
2017-11-04T10:36:46.349Z,99.99
2017-11-04T10:37:46.776Z,99.99
2017-11-04T10:38:47.213Z,99.99
2017-11-04T10:39:47.645Z,99.99
2017-11-04T10:40:48.087Z,99.99
2017-11-04T10:41:48.504Z,99.99
2017-11-04T10:42:48.939Z,99.57
2017-11-04T10:43:49.375Z,99.13
2017-11-04T10:44:49.803Z,99.32
2017-11-04T10:45:50.240Z,99.99
2017-11-04T10:46:50.666Z,99.99
2017-11-04T10:47:51.102Z,99.99
2017-11-04T10:48:51.531Z,99.99
2017-11-04T10:49:51.966Z,99.99
2017-11-04T10:50:52.398Z,99.99
2017-11-04T10:51:52.831Z,99.99
2017-11-04T10:52:53.259Z,99.99
2017-11-04T10:53:53.690Z,99.99
2017-11-04T10:54:54.122Z,99.99
2017-11-04T10:55:54.554Z,99.99
2017-11-04T10:56:54.984Z,99.99
2017-11-04T10:57:55.416Z,99.99
2017-11-04T10:58:55.845Z,99.99
2017-11-04T10:59:56.280Z,99.99
2017-11-04T11:00:56.707Z,99.99
2017-11-04T11:01:57.140Z,99.99
2017-11-04T11:02:57.572Z,99.99
2017-11-04T11:03:58.002Z,99.99
2017-11-04T11:04:58.441Z,99.99
2017-11-04T11:05:58.870Z,99.99
2017-11-04T11:06:59.296Z,99.99
2017-11-04T11:07:59.733Z,99.99
2017-11-04T11:09:00.169Z,99.99
2017-11-04T11:10:00.594Z,99.99
2017-11-04T11:11:01.028Z,99.62
2017-11-04T11:12:01.460Z,98.47
2017-11-04T11:13:01.891Z,97.52
2017-11-04T11:14:02.332Z,97.99
2017-11-04T11:15:02.759Z,97.13
2017-11-04T11:16:03.202Z,97.03
2017-11-04T11:17:03.625Z,96.61
2017-11-04T11:18:04.079Z,96.17
2017-11-04T11:19:04.496Z,96.70
2017-11-04T11:20:04.939Z,95.84
2017-11-04T11:21:05.363Z,95.07
2017-11-04T11:22:05.806Z,95.46
2017-11-04T11:23:06.229Z,94.79
2017-11-04T11:24:06.672Z,94.65
2017-11-04T11:25:07.098Z,94.93
2017-11-04T11:26:07.532Z,94.84
2017-11-04T11:27:07.971Z,95.22
2017-11-04T11:28:08.402Z,94.84
2017-11-04T11:29:08.854Z,95.65
2017-11-04T11:30:09.272Z,97.23
2017-11-04T11:31:09.703Z,99.37
2017-11-04T11:32:10.144Z,99.99
2017-11-04T11:33:10.574Z,99.99
2017-11-04T11:34:11.010Z,99.99
2017-11-04T11:35:11.444Z,99.99
2017-11-04T11:36:11.874Z,99.99
2017-11-04T11:37:12.313Z,99.99
2017-11-04T11:38:12.739Z,99.99
2017-11-04T11:39:13.169Z,99.99
2017-11-04T11:40:13.604Z,99.99
2017-11-04T11:41:14.045Z,99.99
2017-11-04T11:42:14.467Z,99.99
2017-11-04T11:43:14.899Z,99.99
2017-11-04T11:44:15.328Z,99.99
2017-11-04T11:45:15.765Z,99.99
2017-11-04T11:46:16.196Z,99.99
2017-11-04T11:47:16.623Z,99.99
2017-11-04T11:48:17.056Z,99.99
2017-11-04T11:49:17.486Z,99.99
2017-11-04T11:50:17.919Z,99.99
2017-11-04T11:51:18.351Z,99.99
2017-11-04T11:52:18.776Z,99.99
2017-11-04T11:53:19.212Z,99.99
2017-11-04T11:54:19.634Z,99.99
2017-11-04T11:55:20.071Z,99.99
2017-11-04T11:56:20.501Z,99.99
2017-11-04T11:57:20.939Z,99.99
2017-11-04T11:58:21.364Z,99.99
2017-11-04T11:59:21.796Z,99.99
2017-11-04T12:00:22.232Z,99.99
2017-11-04T12:01:22.648Z,99.99
2017-11-04T12:02:23.076Z,99.99
2017-11-04T12:03:23.511Z,99.99
2017-11-04T12:04:23.935Z,99.99
2017-11-04T12:05:24.366Z,99.99
2017-11-04T12:06:24.798Z,99.99
2017-11-04T12:07:25.227Z,99.99
2017-11-04T12:08:25.656Z,99.99
2017-11-04T12:09:26.087Z,99.99
2017-11-04T12:10:26.514Z,99.99
2017-11-04T12:11:26.947Z,99.99
2017-11-04T12:12:27.376Z,99.99
2017-11-04T12:13:27.817Z,99.99
2017-11-04T12:14:28.230Z,99.99
2017-11-04T12:15:28.667Z,99.99
2017-11-04T12:16:29.095Z,99.99
2017-11-04T12:17:29.523Z,99.99
2017-11-04T12:18:29.950Z,99.99
2017-11-04T12:19:30.383Z,99.99
2017-11-04T12:20:30.810Z,99.99
2017-11-04T12:21:31.245Z,99.99
2017-11-04T12:22:31.668Z,99.99
2017-11-04T12:23:32.096Z,99.99
2017-11-04T12:24:32.527Z,99.99
2017-11-04T12:25:32.963Z,99.99
2017-11-04T12:26:33.384Z,99.99
2017-11-04T12:27:33.819Z,99.99
2017-11-04T12:28:34.243Z,99.99
2017-11-04T12:29:34.675Z,99.99
2017-11-04T12:30:35.104Z,99.99
2017-11-04T12:31:35.533Z,99.99
2017-11-04T12:32:35.960Z,99.99
2017-11-04T12:33:36.393Z,99.99
2017-11-04T12:34:36.819Z,99.99
2017-11-04T12:35:37.265Z,99.99
2017-11-04T12:36:37.676Z,99.99
2017-11-04T12:37:38.113Z,99.99
2017-11-04T12:38:38.538Z,99.99
2017-11-04T12:39:38.966Z,99.99
2017-11-04T12:40:39.395Z,99.99
2017-11-04T12:41:39.824Z,99.99
2017-11-04T12:42:40.252Z,99.99
2017-11-04T12:43:40.684Z,99.99
2017-11-04T12:44:41.113Z,99.99
2017-11-04T12:45:41.543Z,99.99
2017-11-04T12:46:41.970Z,99.99
2017-11-04T12:47:42.405Z,99.99
2017-11-04T12:48:42.833Z,99.99
2017-11-04T12:49:43.257Z,99.99
2017-11-04T12:50:43.684Z,99.99
2017-11-04T12:51:44.120Z,99.99
2017-11-04T12:52:44.546Z,99.99
2017-11-04T12:53:44.974Z,99.99
2017-11-04T12:54:45.403Z,99.99
2017-11-04T12:55:45.838Z,99.99
2017-11-04T12:56:46.265Z,99.99
2017-11-04T12:57:46.693Z,99.99